createdAt,value
2022-12-15T00:00:18.354Z,52.27
2022-12-15T00:03:03.755Z,59.03
2022-12-15T00:05:49.959Z,70.43
2022-12-15T00:08:36.363Z,69.53
2022-12-15T00:11:22.219Z,68.50
2022-12-15T00:14:07.678Z,67.38
2022-12-15T00:16:53.040Z,64.17
2022-12-15T00:19:38.522Z,64.25
2022-12-15T00:22:24.908Z,63.43
2022-12-15T00:27:55.306Z,59.60
2022-12-15T00:30:40.716Z,59.10
2022-12-15T00:33:30.405Z,56.20
2022-12-15T00:36:18.085Z,54.38
2022-12-15T00:38:45.802Z,63.45
2022-12-15T00:41:14.946Z,56.70
2022-12-15T00:43:41.681Z,56.53
2022-12-15T00:46:27.770Z,56.83
2022-12-15T00:48:54.765Z,61.80
2022-12-15T00:51:21.445Z,56.67
2022-12-15T00:54:06.725Z,66.40
2022-12-15T00:56:52.088Z,57.60
2022-12-15T00:59:37.611Z,46.40
2022-12-15T01:02:23.202Z,51.23
2022-12-15T01:05:08.570Z,47.80
2022-12-15T01:07:53.960Z,48.53
2022-12-15T01:10:39.632Z,44.60
2022-12-15T01:13:25.219Z,48.08
2022-12-15T01:16:10.845Z,59.42
2022-12-15T01:18:56.148Z,51.30
2022-12-15T01:21:24.889Z,48.50
2022-12-15T01:23:52.642Z,48.35
2022-12-15T01:26:19.649Z,52.10
2022-12-15T01:28:46.368Z,53.42
2022-12-15T01:31:13.299Z,53.80
2022-12-15T01:33:42.451Z,52.45
2022-12-15T01:36:10.153Z,48.60
2022-12-15T01:38:37.272Z,50.60
2022-12-15T01:41:07.904Z,51.28
2022-12-15T01:43:38.022Z,45.28
2022-12-15T01:46:11.683Z,48.92
2022-12-15T01:48:42.459Z,52.92
2022-12-15T01:51:30.374Z,51.33
2022-12-15T01:54:05.254Z,49.20
2022-12-15T01:56:38.003Z,54.10
2022-12-15T01:59:08.976Z,52.42
2022-12-15T02:01:35.960Z,50.58
2022-12-15T02:04:03.109Z,61.20
2022-12-15T02:06:30.384Z,57.20
2022-12-15T02:08:59.517Z,53.08
2022-12-15T02:11:50.071Z,52.13
2022-12-15T02:14:28.211Z,49.00
2022-12-15T02:17:10.159Z,53.10
2022-12-15T02:19:55.401Z,55.30
2022-12-15T02:22:57.295Z,51.97
2022-12-15T02:25:32.913Z,48.30
2022-12-15T02:28:15.038Z,51.38
2022-12-15T02:31:07.252Z,50.05
2022-12-15T02:33:39.008Z,49.72
2022-12-15T02:36:27.409Z,54.50
2022-12-15T02:38:54.140Z,48.10
2022-12-15T02:41:38.633Z,44.95
2022-12-15T02:44:15.134Z,56.72
2022-12-15T02:46:53.403Z,46.47
2022-12-15T02:49:57.462Z,45.90
2022-12-15T02:52:56.925Z,49.72
2022-12-15T02:55:55.647Z,46.15
2022-12-15T02:58:37.378Z,50.47
2022-12-15T03:01:23.785Z,47.88
2022-12-15T03:03:51.907Z,48.00
2022-12-15T03:06:19.724Z,46.92
2022-12-15T03:08:46.391Z,47.85
2022-12-15T03:11:13.109Z,47.67
2022-12-15T03:13:39.802Z,52.95
2022-12-15T03:16:06.776Z,51.40
2022-12-15T03:18:34.146Z,48.13
2022-12-15T03:21:00.983Z,47.97
2022-12-15T03:23:27.929Z,59.22
2022-12-15T03:25:55.732Z,47.60
2022-12-15T03:28:22.899Z,53.80
2022-12-15T03:30:50.419Z,49.17
2022-12-15T03:33:17.571Z,54.17
2022-12-15T03:35:44.416Z,54.03
2022-12-15T03:38:11.177Z,48.40
2022-12-15T03:40:37.830Z,44.53
2022-12-15T03:43:04.536Z,48.97
2022-12-15T03:45:31.323Z,48.78
2022-12-15T03:47:58.166Z,48.60
2022-12-15T03:50:27.335Z,53.17
2022-12-15T03:53:00.111Z,50.85
2022-12-15T03:55:28.925Z,47.13
2022-12-15T03:57:56.071Z,48.83
2022-12-15T04:00:24.605Z,45.70
2022-12-15T04:02:51.902Z,52.97
2022-12-15T04:05:22.931Z,45.45
2022-12-15T04:07:49.583Z,45.78
2022-12-15T04:10:16.314Z,47.97
2022-12-15T04:12:43.152Z,44.80
2022-12-15T04:15:11.455Z,49.95
2022-12-15T04:17:38.507Z,51.17
2022-12-15T04:20:09.876Z,48.95
2022-12-15T04:22:41.734Z,52.13
2022-12-15T04:25:35.090Z,44.22
2022-12-15T04:28:20.506Z,45.75
2022-12-15T04:31:40.731Z,47.90
2022-12-15T04:34:31.285Z,44.08
2022-12-15T04:37:16.736Z,48.17
2022-12-15T04:40:06.112Z,46.97
2022-12-15T04:42:53.510Z,49.33
2022-12-15T04:45:42.554Z,50.20
2022-12-15T04:48:28.581Z,45.15
2022-12-15T04:51:13.987Z,47.20
2022-12-15T04:54:01.034Z,49.53
2022-12-15T04:56:46.446Z,55.88
2022-12-15T04:59:35.389Z,46.47
2022-12-15T05:02:20.878Z,53.38
2022-12-15T05:05:06.014Z,48.88
2022-12-15T05:07:51.440Z,49.67
2022-12-15T05:10:36.904Z,47.80
2022-12-15T05:13:23.666Z,52.87
2022-12-15T05:16:09.380Z,55.92
2022-12-15T05:18:54.570Z,51.70
2022-12-15T05:21:39.972Z,49.20
2022-12-15T05:24:25.345Z,43.90
2022-12-15T05:27:10.806Z,50.03
2022-12-15T05:29:56.327Z,53.60
2022-12-15T05:32:23.709Z,52.93
2022-12-15T05:34:50.390Z,46.13
2022-12-15T05:37:17.059Z,54.75
2022-12-15T05:39:43.861Z,61.15
2022-12-15T05:42:10.589Z,54.58
2022-12-15T05:44:37.307Z,53.92
2022-12-15T05:47:04.835Z,61.28
2022-12-15T05:49:32.102Z,59.55
2022-12-15T05:51:58.820Z,60.90
2022-12-15T05:54:25.566Z,59.78
2022-12-15T05:56:52.252Z,58.13
2022-12-15T05:59:19.358Z,58.22
2022-12-15T06:01:46.439Z,56.75
2022-12-15T06:04:13.606Z,68.05
2022-12-15T06:06:41.208Z,54.20
2022-12-15T06:09:08.847Z,54.20
2022-12-15T06:11:35.541Z,55.78
2022-12-15T06:14:02.401Z,55.05
2022-12-15T06:16:29.517Z,51.53
2022-12-15T06:18:59.145Z,51.92
2022-12-15T06:21:32.744Z,48.92
2022-12-15T06:24:00.614Z,46.38
2022-12-15T06:26:31.342Z,53.03
2022-12-15T06:28:59.704Z,58.60
2022-12-15T06:31:26.715Z,59.50
2022-12-15T06:34:00.926Z,59.20
2022-12-15T06:36:28.635Z,64.75
2022-12-15T06:38:59.476Z,61.95
2022-12-15T06:41:26.586Z,67.13
2022-12-15T06:43:57.929Z,61.17
2022-12-15T06:46:26.368Z,59.42
2022-12-15T06:48:53.596Z,66.55
2022-12-15T06:51:20.435Z,67.57
2022-12-15T06:53:53.671Z,65.20
2022-12-15T06:56:35.936Z,63.95
2022-12-15T06:59:04.719Z,58.97
2022-12-15T07:01:32.310Z,66.47
2022-12-15T07:04:04.670Z,62.08
2022-12-15T07:06:38.585Z,70.05
2022-12-15T07:09:08.190Z,57.97
2022-12-15T07:11:35.241Z,63.15
2022-12-15T07:14:02.153Z,64.15
2022-12-15T07:16:28.979Z,58.60
2022-12-15T07:18:55.716Z,58.22
2022-12-15T07:21:22.451Z,65.95
2022-12-15T07:23:57.567Z,67.10
2022-12-15T07:26:25.584Z,67.60
2022-12-15T07:28:53.790Z,70.65
2022-12-15T07:31:21.851Z,69.88
2022-12-15T07:33:48.924Z,66.32
2022-12-15T07:36:16.127Z,84.85
2022-12-15T07:38:45.355Z,70.75
2022-12-15T07:41:16.912Z,76.95
2022-12-15T07:43:45.383Z,105.15
2022-12-15T07:46:12.196Z,83.97
2022-12-15T07:48:38.938Z,88.28
2022-12-15T07:51:12.440Z,68.50
2022-12-15T07:53:44.264Z,72.22
2022-12-15T07:56:11.066Z,73.43
2022-12-15T07:58:38.440Z,75.68
2022-12-15T08:01:07.738Z,69.07
2022-12-15T08:03:35.811Z,70.47
2022-12-15T08:06:06.823Z,64.80
2022-12-15T08:08:35.874Z,69.45
2022-12-15T08:11:07.014Z,74.53
2022-12-15T08:16:25.058Z,152.10
2022-12-15T08:18:51.905Z,93.43
2022-12-15T08:21:18.899Z,74.88
2022-12-15T08:23:45.775Z,80.43
2022-12-15T08:26:15.037Z,72.80
2022-12-15T08:28:42.784Z,72.40
2022-12-15T08:31:12.451Z,72.43
2022-12-15T08:33:39.769Z,78.30
2022-12-15T08:36:09.689Z,78.13
2022-12-15T08:38:41.219Z,68.85
2022-12-15T08:41:23.070Z,72.40
2022-12-15T08:43:50.680Z,90.47
2022-12-15T08:46:19.714Z,88.68
2022-12-15T08:48:47.101Z,86.30
2022-12-15T08:51:14.247Z,102.60
2022-12-15T08:53:40.981Z,86.95
2022-12-15T08:56:17.835Z,78.28
2022-12-15T08:58:48.919Z,75.35
2022-12-15T09:01:23.618Z,77.68
2022-12-15T09:03:52.184Z,83.67
2022-12-15T09:06:23.032Z,87.82
2022-12-15T09:08:50.443Z,77.72
2022-12-15T09:11:17.839Z,71.72
2022-12-15T09:13:44.643Z,75.82
2022-12-15T09:16:16.765Z,68.03
2022-12-15T09:18:45.970Z,83.15
2022-12-15T09:21:13.691Z,74.85
2022-12-15T09:23:40.680Z,77.75
2022-12-15T09:26:10.988Z,75.30
2022-12-15T09:28:38.456Z,73.75
2022-12-15T09:31:11.227Z,77.70
2022-12-15T09:33:39.447Z,85.70
2022-12-15T09:36:07.762Z,70.45
2022-12-15T09:38:35.173Z,80.15
2022-12-15T09:41:13.794Z,76.05
2022-12-15T09:43:56.521Z,82.75
2022-12-15T09:46:49.811Z,79.25
2022-12-15T09:49:19.978Z,80.00
2022-12-15T09:51:56.019Z,79.88
2022-12-15T09:54:26.729Z,80.43
2022-12-15T09:56:56.667Z,77.50
2022-12-15T09:59:44.887Z,80.25
2022-12-15T10:02:12.468Z,72.82
2022-12-15T10:05:02.913Z,80.03
2022-12-15T10:07:39.583Z,84.90
2022-12-15T10:10:33.449Z,74.63
2022-12-15T10:13:08.989Z,81.13
2022-12-15T10:15:50.160Z,77.10
2022-12-15T10:18:20.058Z,95.65
2022-12-15T10:20:46.900Z,81.22
2022-12-15T10:23:17.634Z,89.38
2022-12-15T10:26:09.256Z,84.40
2022-12-15T10:28:55.667Z,80.03
2022-12-15T10:34:10.742Z,79.57
2022-12-15T10:36:37.910Z,81.05
2022-12-15T10:39:04.650Z,82.00
2022-12-15T10:41:32.949Z,76.70
2022-12-15T10:43:59.744Z,84.05
2022-12-15T10:46:29.027Z,87.57
2022-12-15T10:49:07.917Z,91.80
2022-12-15T10:51:47.245Z,94.43
2022-12-15T10:54:15.811Z,90.78
2022-12-15T10:56:54.929Z,80.35
2022-12-15T10:59:38.637Z,92.80
2022-12-15T11:02:23.835Z,86.25
2022-12-15T11:05:15.607Z,85.40
2022-12-15T11:07:42.387Z,79.65
2022-12-15T11:10:25.240Z,88.45
2022-12-15T11:13:16.262Z,88.32
2022-12-15T11:15:51.722Z,88.13
2022-12-15T11:18:21.406Z,78.35
2022-12-15T11:21:02.927Z,83.85
2022-12-15T11:23:46.682Z,88.00
2022-12-15T11:26:36.496Z,85.45
2022-12-15T11:29:16.621Z,93.82
2022-12-15T11:31:45.358Z,84.40
2022-12-15T11:34:18.703Z,90.45
2022-12-15T11:36:48.445Z,79.82
2022-12-15T11:39:36.026Z,86.10
2022-12-15T11:42:23.492Z,76.03
2022-12-15T11:45:17.177Z,88.30
2022-12-15T11:48:07.571Z,77.43
2022-12-15T11:51:12.037Z,87.82
2022-12-15T11:53:56.094Z,92.07
2022-12-15T11:56:33.729Z,85.53
2022-12-15T11:59:40.258Z,82.07
2022-12-15T12:02:28.298Z,91.07
2022-12-15T12:05:14.208Z,90.30
2022-12-15T12:07:54.711Z,90.28
2022-12-15T12:10:44.033Z,82.72
2022-12-15T12:13:30.649Z,78.20
2022-12-15T12:16:11.852Z,83.28
2022-12-15T12:21:51.328Z,87.55
2022-12-15T12:24:31.362Z,87.03
2022-12-15T12:27:16.750Z,90.88
2022-12-15T12:29:52.382Z,91.78
2022-12-15T12:32:44.352Z,83.80
2022-12-15T12:35:35.746Z,87.60
2022-12-15T12:38:05.047Z,89.45
2022-12-15T12:40:41.157Z,81.45
2022-12-15T12:45:57.201Z,78.63
2022-12-15T12:48:29.529Z,87.68
2022-12-15T12:51:21.369Z,83.10
2022-12-15T12:53:48.712Z,84.40
2022-12-15T12:56:36.108Z,83.18
2022-12-15T12:59:08.859Z,86.80
2022-12-15T13:01:38.305Z,82.32
2022-12-15T13:04:14.078Z,85.78
2022-12-15T13:06:40.780Z,80.55
2022-12-15T13:09:19.446Z,81.50
2022-12-15T13:11:49.350Z,88.80
2022-12-15T13:14:26.507Z,81.50
2022-12-15T13:20:01.476Z,99.35
2022-12-15T13:22:37.018Z,90.40
2022-12-15T13:25:38.342Z,86.03
2022-12-15T13:28:29.961Z,81.45
2022-12-15T13:31:21.118Z,89.10
2022-12-15T13:33:51.041Z,92.00
2022-12-15T13:36:36.695Z,81.60
2022-12-15T13:39:25.368Z,91.43
2022-12-15T13:42:31.624Z,79.65
2022-12-15T13:44:46.758Z,83.07
2022-12-15T13:47:22.031Z,68.28
2022-12-15T13:50:13.123Z,76.35
2022-12-15T13:55:39.960Z,75.38
2022-12-15T13:58:09.618Z,81.20
2022-12-15T14:00:38.892Z,78.90
2022-12-15T14:03:07.557Z,85.13
2022-12-15T14:05:34.463Z,78.68
2022-12-15T14:08:03.495Z,77.88
2022-12-15T14:10:33.183Z,73.38
2022-12-15T14:13:15.534Z,85.53
2022-12-15T14:16:05.185Z,87.35
2022-12-15T14:18:37.396Z,77.65
2022-12-15T14:21:21.990Z,97.97
2022-12-15T14:24:19.698Z,79.28
2022-12-15T14:26:36.302Z,93.93
2022-12-15T14:29:05.621Z,82.97
2022-12-15T14:31:32.950Z,83.53
2022-12-15T14:34:07.921Z,78.45
2022-12-15T14:36:35.739Z,79.68
2022-12-15T14:39:07.046Z,84.63
2022-12-15T14:41:37.306Z,85.25
2022-12-15T14:44:37.152Z,87.60
2022-12-15T14:47:15.833Z,75.60
2022-12-15T14:49:45.348Z,78.35
2022-12-15T14:52:39.733Z,85.45
2022-12-15T14:55:35.465Z,75.82
2022-12-15T14:58:02.940Z,92.97
2022-12-15T15:00:35.920Z,88.13
2022-12-15T15:03:04.870Z,91.88
2022-12-15T15:03:20.036Z,87.40
2022-12-15T15:05:51.610Z,96.47
2022-12-15T15:08:36.428Z,92.70
2022-12-15T15:11:31.203Z,85.18
2022-12-15T15:14:17.258Z,83.50
2022-12-15T15:16:44.467Z,80.90
2022-12-15T15:19:21.288Z,78.28
2022-12-15T15:21:48.343Z,92.60
2022-12-15T15:24:15.331Z,80.93
2022-12-15T15:26:43.105Z,87.93
2022-12-15T15:29:31.745Z,85.97
2022-12-15T15:32:27.947Z,85.70
2022-12-15T15:34:54.658Z,82.15
2022-12-15T15:37:24.115Z,82.97
2022-12-15T15:39:52.894Z,84.00
2022-12-15T15:42:19.763Z,82.85
2022-12-15T15:44:46.557Z,82.50
2022-12-15T15:47:25.243Z,74.53
2022-12-15T15:49:54.708Z,84.47
2022-12-15T15:52:22.310Z,76.75
2022-12-15T15:54:49.354Z,82.30
2022-12-15T15:57:17.918Z,76.82
2022-12-15T15:59:46.586Z,73.63
2022-12-15T16:02:14.420Z,87.18
2022-12-15T16:04:42.439Z,88.00
2022-12-15T16:07:29.069Z,90.90
2022-12-15T16:09:56.605Z,72.55
2022-12-15T16:12:29.624Z,81.65
2022-12-15T16:14:56.630Z,105.75
2022-12-15T16:17:23.656Z,87.05
2022-12-15T16:19:50.377Z,105.57
2022-12-15T16:22:22.220Z,77.85
2022-12-15T16:24:49.127Z,79.25
2022-12-15T16:27:16.382Z,85.85
2022-12-15T16:29:43.300Z,82.28
2022-12-15T16:32:12.461Z,74.53
2022-12-15T16:34:39.228Z,96.30
2022-12-15T16:37:06.555Z,83.38
2022-12-15T16:39:35.049Z,77.75
2022-12-15T16:42:02.148Z,86.68
2022-12-15T16:44:29.743Z,85.90
2022-12-15T16:46:57.673Z,82.82
2022-12-15T16:49:25.079Z,105.65
2022-12-15T16:51:53.622Z,105.25
2022-12-15T16:54:26.115Z,88.28
2022-12-15T16:56:57.082Z,79.15
2022-12-15T16:59:33.402Z,76.32
2022-12-15T17:02:01.366Z,80.35
2022-12-15T17:04:28.203Z,77.00
2022-12-15T17:06:54.971Z,68.90
2022-12-15T17:09:24.123Z,68.13
2022-12-15T17:11:51.889Z,79.10
2022-12-15T17:14:18.604Z,68.63
2022-12-15T17:16:45.396Z,68.75
2022-12-15T17:19:14.987Z,74.38
2022-12-15T17:21:48.928Z,70.78
2022-12-15T17:24:19.938Z,63.53
2022-12-15T17:26:47.030Z,70.07
2022-12-15T17:29:22.857Z,70.63
2022-12-15T17:31:49.961Z,67.35
2022-12-15T17:34:30.529Z,65.45
2022-12-15T17:36:59.472Z,69.55
2022-12-15T17:39:27.359Z,62.30
2022-12-15T17:42:02.533Z,71.45
2022-12-15T17:44:36.107Z,69.40
2022-12-15T17:47:06.183Z,68.13
2022-12-15T17:49:36.566Z,66.10
2022-12-15T17:52:12.511Z,71.10
2022-12-15T17:54:39.270Z,73.13
2022-12-15T17:57:07.632Z,67.85
2022-12-15T17:59:34.278Z,67.53
2022-12-15T18:02:01.120Z,65.00
2022-12-15T18:04:27.983Z,73.53
2022-12-15T18:07:01.280Z,69.18
2022-12-15T18:09:29.268Z,75.90
2022-12-15T18:11:56.226Z,72.03
2022-12-15T18:14:23.021Z,86.78
2022-12-15T18:16:50.002Z,76.85
2022-12-15T18:19:16.765Z,73.63
2022-12-15T18:21:43.568Z,77.60
2022-12-15T18:24:19.195Z,76.80
2022-12-15T18:26:45.920Z,79.13
2022-12-15T18:29:14.283Z,72.60
2022-12-15T18:31:42.070Z,77.05
2022-12-15T18:34:18.140Z,77.45
2022-12-15T18:36:45.351Z,69.32
2022-12-15T18:39:21.084Z,73.60
2022-12-15T18:41:48.773Z,69.28
2022-12-15T18:44:26.303Z,73.97
2022-12-15T18:46:55.124Z,72.30
2022-12-15T18:49:22.735Z,62.85
2022-12-15T18:51:49.639Z,71.05
2022-12-15T18:54:24.155Z,73.00
2022-12-15T18:56:51.639Z,63.30
2022-12-15T18:59:18.846Z,66.75
2022-12-15T19:01:47.386Z,62.78
2022-12-15T19:04:15.000Z,61.55
2022-12-15T19:06:41.698Z,66.07
2022-12-15T19:09:18.153Z,67.80
2022-12-15T19:12:05.976Z,69.47
2022-12-15T19:14:42.629Z,80.40
2022-12-15T19:17:37.046Z,75.68
2022-12-15T19:20:25.715Z,77.20
2022-12-15T19:22:52.731Z,62.30
2022-12-15T19:25:27.048Z,63.72
2022-12-15T19:28:04.181Z,67.00
2022-12-15T19:30:37.034Z,60.38
2022-12-15T19:33:08.306Z,66.55
2022-12-15T19:35:36.694Z,59.45
2022-12-15T19:38:04.182Z,60.78
2022-12-15T19:40:33.519Z,57.70
2022-12-15T19:43:01.006Z,53.90
2022-12-15T19:45:30.445Z,64.97
2022-12-15T19:47:58.029Z,55.92
2022-12-15T19:50:28.359Z,59.13
2022-12-15T19:53:12.157Z,57.05
2022-12-15T19:55:39.182Z,60.95
2022-12-15T19:58:28.065Z,57.63
2022-12-15T20:00:57.863Z,59.97
2022-12-15T20:03:25.728Z,60.40
2022-12-15T20:05:54.451Z,51.72
2022-12-15T20:08:27.286Z,54.33
2022-12-15T20:10:55.432Z,50.95
2022-12-15T20:13:22.822Z,53.97
2022-12-15T20:15:49.597Z,54.55
2022-12-15T20:18:16.397Z,51.53
2022-12-15T20:20:46.253Z,52.05
2022-12-15T20:23:20.685Z,50.10
2022-12-15T20:25:47.570Z,57.85
2022-12-15T20:28:27.405Z,48.45
2022-12-15T20:30:55.939Z,44.17
2022-12-15T20:33:22.806Z,45.22
2022-12-15T20:35:50.250Z,47.15
2022-12-15T20:38:33.925Z,49.30
2022-12-15T20:41:01.988Z,40.85
2022-12-15T20:43:31.669Z,44.72
2022-12-15T20:46:15.473Z,46.58
2022-12-15T20:48:42.848Z,44.63
2022-12-15T20:51:15.702Z,41.05
2022-12-15T20:53:43.729Z,44.72
2022-12-15T20:56:10.522Z,35.70
2022-12-15T20:58:40.428Z,35.38
2022-12-15T21:01:18.581Z,37.00
2022-12-15T21:03:45.972Z,36.33
2022-12-15T21:06:12.789Z,39.97
2022-12-15T21:08:39.502Z,40.40
2022-12-15T21:11:19.955Z,40.38
2022-12-15T21:13:49.028Z,40.70
2022-12-15T21:16:19.727Z,36.58
2022-12-15T21:21:39.743Z,33.80
2022-12-15T21:24:22.736Z,36.63
2022-12-15T21:26:50.569Z,32.72
2022-12-15T21:29:26.308Z,35.72
2022-12-15T21:31:53.102Z,37.15
2022-12-15T21:34:19.798Z,33.20
2022-12-15T21:36:50.039Z,31.85
2022-12-15T21:39:29.391Z,34.67
2022-12-15T21:41:58.895Z,34.03
2022-12-15T21:44:25.588Z,29.38
2022-12-15T21:46:52.366Z,36.83
2022-12-15T21:49:21.394Z,32.53
2022-12-15T21:51:57.319Z,34.70
2022-12-15T21:57:02.662Z,33.05
2022-12-15T21:59:31.520Z,29.42
2022-12-15T22:02:00.588Z,30.92
2022-12-15T22:04:33.956Z,31.48
2022-12-15T22:07:01.154Z,30.80
2022-12-15T22:09:28.639Z,30.75
2022-12-15T22:11:56.491Z,34.42
2022-12-15T22:14:29.629Z,31.67
2022-12-15T22:16:57.241Z,29.48
2022-12-15T22:19:24.122Z,27.52
2022-12-15T22:21:51.299Z,33.15
2022-12-15T22:24:19.050Z,28.25
2022-12-15T22:26:47.391Z,34.28
2022-12-15T22:29:21.223Z,28.70
2022-12-15T22:31:50.127Z,30.70
2022-12-15T22:34:23.027Z,31.42
2022-12-15T22:36:53.063Z,34.67
2022-12-15T22:39:21.851Z,34.20
2022-12-15T22:41:50.668Z,30.20
2022-12-15T22:44:33.201Z,31.02
2022-12-15T22:47:01.599Z,27.00
2022-12-15T22:49:36.230Z,29.23
2022-12-15T22:52:03.708Z,24.52
2022-12-15T22:54:32.146Z,25.23
2022-12-15T22:57:05.348Z,25.08
2022-12-15T22:59:43.717Z,25.48
2022-12-15T23:02:11.345Z,30.92
2022-12-15T23:04:38.319Z,25.58
2022-12-15T23:07:10.053Z,25.88
2022-12-15T23:09:37.025Z,27.42
2022-12-15T23:12:03.947Z,26.55
2022-12-15T23:14:49.115Z,25.98
2022-12-15T23:17:15.897Z,25.40
2022-12-15T23:19:46.495Z,22.95
2022-12-15T23:22:13.537Z,23.73
2022-12-15T23:24:40.234Z,21.05
2022-12-15T23:27:11.654Z,22.48
2022-12-15T23:29:38.472Z,24.23
2022-12-15T23:32:06.020Z,26.13
2022-12-15T23:34:32.701Z,23.00
2022-12-15T23:36:59.538Z,24.80
2022-12-15T23:39:26.230Z,21.75
2022-12-15T23:41:52.900Z,24.17
2022-12-15T23:44:20.168Z,24.23
2022-12-15T23:46:46.990Z,25.88
2022-12-15T23:49:13.822Z,24.15
2022-12-15T23:51:40.523Z,19.70
2022-12-15T23:54:07.262Z,24.70
2022-12-15T23:56:33.980Z,22.65
2022-12-15T23:59:00.646Z,22.58
